createdAt,value
2023-04-08T00:02:34.321Z,33.25
2023-04-08T00:05:21.125Z,32.20
2023-04-08T00:08:09.077Z,34.20
2023-04-08T00:10:55.584Z,32.55
2023-04-08T00:13:42.092Z,29.42
2023-04-08T00:16:28.316Z,26.58
2023-04-08T00:19:14.789Z,26.35
2023-04-08T00:22:01.198Z,24.98
2023-04-08T00:24:49.152Z,23.13
2023-04-08T00:27:35.737Z,23.38
2023-04-08T00:30:22.258Z,22.75
2023-04-08T00:33:08.840Z,21.25
2023-04-08T00:35:55.532Z,21.20
2023-04-08T00:38:41.893Z,21.50
2023-04-08T00:41:29.605Z,21.00
2023-04-08T00:44:16.050Z,21.08
2023-04-08T00:47:02.753Z,21.58
2023-04-08T00:49:49.289Z,22.33
2023-04-08T00:52:35.684Z,23.27
2023-04-08T00:55:22.289Z,22.65
2023-04-08T00:58:10.032Z,23.17
2023-04-08T01:01:03.121Z,22.05
2023-04-08T01:03:58.982Z,21.88
2023-04-08T01:06:50.517Z,24.25
2023-04-08T01:09:40.143Z,23.83
2023-04-08T01:12:28.282Z,24.42
2023-04-08T01:15:17.187Z,25.13
2023-04-08T01:18:08.323Z,25.50
2023-04-08T01:20:55.691Z,24.33
2023-04-08T01:23:55.866Z,24.75
2023-04-08T01:26:44.877Z,25.80
2023-04-08T01:29:31.960Z,24.80
2023-04-08T01:32:19.307Z,24.88
2023-04-08T01:35:07.211Z,24.85
2023-04-08T01:37:55.234Z,33.35
2023-04-08T01:40:43.666Z,30.02
2023-04-08T01:43:33.784Z,30.25
2023-04-08T01:46:21.667Z,34.08
2023-04-08T01:49:09.241Z,27.88
2023-04-08T01:51:57.860Z,31.17
2023-04-08T01:54:43.966Z,34.58
2023-04-08T01:57:34.738Z,29.55
2023-04-08T02:00:26.969Z,29.13
2023-04-08T02:03:14.206Z,27.48
2023-04-08T02:06:00.830Z,30.05
2023-04-08T02:08:46.988Z,26.40
2023-04-08T02:11:33.277Z,24.60
2023-04-08T02:14:19.941Z,26.83
2023-04-08T02:17:12.470Z,24.45
2023-04-08T02:20:06.728Z,25.77
2023-04-08T02:23:00.819Z,23.58
2023-04-08T02:25:49.636Z,24.58
2023-04-08T02:28:37.701Z,25.05
2023-04-08T02:31:25.810Z,23.58
2023-04-08T02:34:15.123Z,22.73
2023-04-08T02:37:01.638Z,23.70
2023-04-08T02:39:47.724Z,22.15
2023-04-08T02:42:34.139Z,23.33
2023-04-08T02:45:20.382Z,19.90
2023-04-08T02:48:09.683Z,24.42
2023-04-08T02:50:57.515Z,19.58
2023-04-08T02:53:44.086Z,20.15
2023-04-08T02:56:30.623Z,24.25
2023-04-08T02:59:16.820Z,25.95
2023-04-08T03:02:02.860Z,20.98
2023-04-08T03:04:49.519Z,22.63
2023-04-08T03:07:36.966Z,19.17
2023-04-08T03:10:22.980Z,21.90
2023-04-08T03:13:09.190Z,21.20
2023-04-08T03:15:55.366Z,18.73
2023-04-08T03:18:41.742Z,18.98
2023-04-08T03:21:27.832Z,20.90
2023-04-08T03:24:15.570Z,21.30
2023-04-08T03:27:01.936Z,20.10
2023-04-08T03:29:48.450Z,20.10
2023-04-08T03:32:34.892Z,20.65
2023-04-08T03:35:24.713Z,19.80
2023-04-08T03:38:11.101Z,20.85
2023-04-08T03:40:58.952Z,19.90
2023-04-08T03:43:45.834Z,19.63
2023-04-08T03:46:32.335Z,18.30
2023-04-08T03:49:18.598Z,24.00
2023-04-08T03:52:05.636Z,15.07
2023-04-08T03:54:52.106Z,19.88
2023-04-08T03:57:39.768Z,18.10
2023-04-08T04:00:26.299Z,19.83
2023-04-08T04:03:13.352Z,18.08
2023-04-08T04:06:00.000Z,17.60
2023-04-08T04:08:46.427Z,19.60
2023-04-08T04:11:32.666Z,21.48
2023-04-08T04:14:20.384Z,19.58
2023-04-08T04:17:06.764Z,26.77
2023-04-08T04:19:53.074Z,21.77
2023-04-08T04:22:39.297Z,23.58
2023-04-08T04:25:25.829Z,19.35
2023-04-08T04:28:11.840Z,18.00
2023-04-08T04:30:59.741Z,22.23
2023-04-08T04:33:47.226Z,22.48
2023-04-08T04:36:33.511Z,21.05
2023-04-08T04:39:20.054Z,23.92
2023-04-08T04:42:06.644Z,22.88
2023-04-08T04:44:54.053Z,21.02
2023-04-08T04:47:42.054Z,19.55
2023-04-08T04:50:28.571Z,20.38
2023-04-08T04:53:14.799Z,20.75
2023-04-08T04:56:01.803Z,20.63
2023-04-08T04:58:48.294Z,22.35
2023-04-08T05:01:34.461Z,23.80
2023-04-08T05:04:22.538Z,24.73
2023-04-08T05:07:08.970Z,22.17
2023-04-08T05:09:55.419Z,24.48
2023-04-08T05:12:42.022Z,24.02
2023-04-08T05:15:28.957Z,23.65
2023-04-08T05:18:15.456Z,23.63
2023-04-08T05:21:03.220Z,25.85
2023-04-08T05:23:50.987Z,24.60
2023-04-08T05:26:38.721Z,22.83
2023-04-08T05:29:25.542Z,24.02
2023-04-08T05:32:12.133Z,22.85
2023-04-08T05:34:58.320Z,21.75
2023-04-08T05:37:46.016Z,25.00
2023-04-08T05:40:32.225Z,23.23
2023-04-08T05:43:18.678Z,23.27
2023-04-08T05:46:07.923Z,23.33
2023-04-08T05:48:54.047Z,22.20
2023-04-08T05:51:40.403Z,30.65
2023-04-08T05:54:28.149Z,23.83
2023-04-08T05:57:14.258Z,26.73
2023-04-08T06:00:00.825Z,28.35
2023-04-08T06:02:47.496Z,24.83
2023-04-08T06:05:33.844Z,25.13
2023-04-08T06:08:21.097Z,30.60
2023-04-08T06:11:08.752Z,25.50
2023-04-08T06:13:55.419Z,24.65
2023-04-08T06:16:41.776Z,26.38
2023-04-08T06:19:27.963Z,27.20
2023-04-08T06:22:14.141Z,28.33
2023-04-08T06:25:00.698Z,27.33
2023-04-08T06:27:48.623Z,27.63
2023-04-08T06:30:34.835Z,28.63
2023-04-08T06:33:21.558Z,26.25
2023-04-08T06:36:08.938Z,26.15
2023-04-08T06:38:55.375Z,26.08
2023-04-08T06:41:41.584Z,24.67
2023-04-08T06:44:44.245Z,25.75
2023-04-08T06:47:30.747Z,27.60
2023-04-08T06:50:17.025Z,27.00
2023-04-08T06:53:03.113Z,26.80
2023-04-08T06:55:49.666Z,26.05
2023-04-08T06:58:36.152Z,25.52
2023-04-08T07:01:24.964Z,26.98
2023-04-08T07:04:11.398Z,25.60
2023-04-08T07:06:57.809Z,26.52
2023-04-08T07:09:45.913Z,28.20
2023-04-08T07:12:32.156Z,25.27
2023-04-08T07:15:18.273Z,25.17
2023-04-08T07:18:06.132Z,25.85
2023-04-08T07:20:53.064Z,25.50
2023-04-08T07:23:39.137Z,26.92
2023-04-08T07:26:25.773Z,25.45
2023-04-08T07:29:11.950Z,25.10
2023-04-08T07:31:58.187Z,24.17
2023-04-08T07:34:45.837Z,25.38
2023-04-08T07:37:31.899Z,24.45
2023-04-08T07:40:18.596Z,24.17
2023-04-08T07:43:04.894Z,24.70
2023-04-08T07:45:51.274Z,22.45
2023-04-08T07:48:37.916Z,22.60
2023-04-08T07:51:25.600Z,22.48
2023-04-08T07:54:12.498Z,22.95
2023-04-08T07:56:59.832Z,21.90
2023-04-08T07:59:46.020Z,21.45
2023-04-08T08:02:32.211Z,21.23
2023-04-08T08:05:18.775Z,21.35
2023-04-08T08:08:07.578Z,20.90
2023-04-08T08:10:53.925Z,20.05
2023-04-08T08:13:40.396Z,20.00
2023-04-08T08:16:29.483Z,19.02
2023-04-08T08:19:15.972Z,18.85
2023-04-08T08:22:02.338Z,19.27
2023-04-08T08:24:50.009Z,18.95
2023-04-08T08:27:36.436Z,19.48
2023-04-08T08:30:23.017Z,18.48
2023-04-08T08:33:09.415Z,18.55
2023-04-08T08:35:57.916Z,19.20
2023-04-08T08:38:44.617Z,19.52
2023-04-08T08:41:36.491Z,19.65
2023-04-08T08:44:23.084Z,18.92
2023-04-08T08:47:09.547Z,18.30
2023-04-08T08:49:56.183Z,19.05
2023-04-08T08:52:49.586Z,18.77
2023-04-08T08:56:02.168Z,17.95
2023-04-08T08:58:43.913Z,18.48
2023-04-08T09:01:34.626Z,17.67
2023-04-08T09:04:23.059Z,17.20
2023-04-08T09:07:11.426Z,16.15
2023-04-08T09:09:59.443Z,16.13
2023-04-08T09:12:55.472Z,17.95
2023-04-08T09:16:02.165Z,17.23
2023-04-08T09:18:49.017Z,18.25
2023-04-08T09:21:35.659Z,18.40
2023-04-08T09:24:30.209Z,16.77
2023-04-08T09:27:16.776Z,16.73
2023-04-08T09:30:15.518Z,17.63
2023-04-08T09:33:07.157Z,15.40
2023-04-08T09:35:53.995Z,15.85
2023-04-08T09:38:40.581Z,15.43
2023-04-08T09:41:29.565Z,14.75
2023-04-08T09:44:17.709Z,14.15
2023-04-08T09:47:11.397Z,12.73
2023-04-08T09:50:03.903Z,12.48
2023-04-08T09:52:55.127Z,11.52
2023-04-08T09:55:44.682Z,12.40
2023-04-08T09:58:39.996Z,12.80
2023-04-08T10:01:34.105Z,12.55
2023-04-08T10:04:22.279Z,11.85
2023-04-08T10:07:10.627Z,12.00
2023-04-08T10:09:59.501Z,11.38
2023-04-08T10:12:46.076Z,10.85
2023-04-08T10:15:33.672Z,11.88
2023-04-08T10:18:33.750Z,13.50
2023-04-08T10:21:39.503Z,10.30
2023-04-08T10:24:27.200Z,10.05
2023-04-08T10:27:40.676Z,9.98
2023-04-08T10:30:43.507Z,9.65
2023-04-08T10:33:34.593Z,10.50
2023-04-08T10:36:20.842Z,9.13
2023-04-08T10:39:07.142Z,9.65
2023-04-08T10:41:55.848Z,8.50
2023-04-08T10:44:45.966Z,8.68
2023-04-08T10:47:32.296Z,9.38
2023-04-08T10:50:20.012Z,8.68
2023-04-08T10:53:06.506Z,8.43
2023-04-08T10:55:53.712Z,8.18
2023-04-08T10:58:50.652Z,8.98
2023-04-08T11:01:44.955Z,8.85
2023-04-08T11:04:31.286Z,8.70
2023-04-08T11:07:21.759Z,8.60
2023-04-08T11:10:09.349Z,8.30
2023-04-08T11:12:56.341Z,8.13
2023-04-08T11:15:44.341Z,8.55
2023-04-08T11:18:32.190Z,8.05
2023-04-08T11:21:18.716Z,7.63
2023-04-08T11:24:11.863Z,8.50
2023-04-08T11:26:59.200Z,7.47
2023-04-08T11:29:46.212Z,7.72
2023-04-08T11:32:35.439Z,7.72
2023-04-08T11:35:21.864Z,7.75
2023-04-08T11:38:09.300Z,8.20
2023-04-08T11:40:55.998Z,9.25
2023-04-08T11:43:52.695Z,8.25
2023-04-08T11:46:40.999Z,8.15
2023-04-08T11:49:29.302Z,8.40
2023-04-08T11:52:15.826Z,7.13
2023-04-08T11:55:01.866Z,8.27
2023-04-08T11:57:48.187Z,7.75
2023-04-08T12:00:34.537Z,7.88
2023-04-08T12:03:21.311Z,7.78
2023-04-08T12:06:10.046Z,7.47
2023-04-08T12:08:57.675Z,7.18
2023-04-08T12:11:43.833Z,8.13
2023-04-08T12:14:30.677Z,7.05
2023-04-08T12:17:19.246Z,7.18
2023-04-08T12:20:07.655Z,7.63
2023-04-08T12:22:56.154Z,6.90
2023-04-08T12:25:43.026Z,6.85
2023-04-08T12:28:31.882Z,7.35
2023-04-08T12:31:18.344Z,6.90
2023-04-08T12:34:04.654Z,6.97
2023-04-08T12:36:51.250Z,7.80
2023-04-08T12:39:38.963Z,7.00
2023-04-08T12:42:25.320Z,6.95
2023-04-08T12:45:11.735Z,7.40
2023-04-08T12:47:58.307Z,7.90
2023-04-08T12:50:44.816Z,7.00
2023-04-08T12:53:31.142Z,7.60
2023-04-08T12:56:19.006Z,6.40
2023-04-08T12:59:05.593Z,7.22
2023-04-08T13:01:52.196Z,7.10
2023-04-08T13:04:38.574Z,7.53
2023-04-08T13:07:24.738Z,7.97
2023-04-08T13:10:11.464Z,7.32
2023-04-08T13:12:59.336Z,6.93
2023-04-08T13:15:45.795Z,7.22
2023-04-08T13:18:32.209Z,8.00
2023-04-08T13:21:18.522Z,6.40
2023-04-08T13:24:09.924Z,7.78
2023-04-08T13:27:04.817Z,6.18
2023-04-08T13:29:52.389Z,7.03
2023-04-08T13:32:39.066Z,6.78
2023-04-08T13:35:25.532Z,6.70
2023-04-08T13:38:13.664Z,6.55
2023-04-08T13:41:00.144Z,6.57
2023-04-08T13:43:47.142Z,7.38
2023-04-08T13:46:35.776Z,7.38
2023-04-08T13:49:22.171Z,7.03
2023-04-08T13:52:09.049Z,7.10
2023-04-08T13:54:55.699Z,7.50
2023-04-08T13:57:41.991Z,7.20
2023-04-08T14:00:28.548Z,6.80
2023-04-08T14:03:16.782Z,6.32
2023-04-08T14:06:03.060Z,7.13
2023-04-08T14:08:50.163Z,6.60
2023-04-08T14:11:38.610Z,7.10
2023-04-08T14:14:25.379Z,7.28
2023-04-08T14:17:12.071Z,6.38
2023-04-08T14:20:01.020Z,6.15
2023-04-08T14:22:47.207Z,5.55
2023-04-08T14:25:33.763Z,7.10
2023-04-08T14:28:20.079Z,6.72
2023-04-08T14:31:06.816Z,5.55
2023-04-08T14:33:53.338Z,5.22
2023-04-08T14:36:41.076Z,5.18
2023-04-08T14:39:28.232Z,4.70
2023-04-08T14:42:16.539Z,5.68
2023-04-08T14:45:03.343Z,5.13
2023-04-08T14:47:50.034Z,5.20
2023-04-08T14:50:36.484Z,4.32
2023-04-08T14:53:24.357Z,4.45
2023-04-08T14:56:11.249Z,6.35
2023-04-08T14:58:57.587Z,4.45
2023-04-08T15:01:44.951Z,5.38
2023-04-08T15:04:31.688Z,4.40
2023-04-08T15:07:18.354Z,4.93
2023-04-08T15:10:06.579Z,4.47
2023-04-08T15:12:52.753Z,5.57
2023-04-08T15:15:39.042Z,6.32
2023-04-08T15:18:25.657Z,7.20
2023-04-08T15:21:12.211Z,7.13
2023-04-08T15:23:59.149Z,7.28
2023-04-08T15:26:47.247Z,9.77
2023-04-08T15:29:33.735Z,7.15
2023-04-08T15:32:20.348Z,7.22
2023-04-08T15:35:07.793Z,7.38
2023-04-08T15:37:55.704Z,6.95
2023-04-08T15:40:43.257Z,6.72
2023-04-08T15:43:31.222Z,6.90
2023-04-08T15:46:24.217Z,6.47
2023-04-08T15:49:10.800Z,7.13
2023-04-08T15:52:00.435Z,6.55
2023-04-08T15:54:47.157Z,6.47
2023-04-08T15:57:33.276Z,7.05
2023-04-08T16:00:21.488Z,6.47
2023-04-08T16:03:11.975Z,6.70
2023-04-08T16:06:01.035Z,6.00
2023-04-08T16:08:52.633Z,7.38
2023-04-08T16:11:39.528Z,6.75
2023-04-08T16:14:26.088Z,6.28
2023-04-08T16:17:13.674Z,6.80
2023-04-08T16:20:00.469Z,5.90
2023-04-08T16:22:46.733Z,5.60
2023-04-08T16:25:33.380Z,6.15
2023-04-08T16:28:19.907Z,6.43
2023-04-08T16:31:06.941Z,6.15
2023-04-08T16:33:54.952Z,6.43
2023-04-08T16:36:43.850Z,5.80
2023-04-08T16:39:30.775Z,5.72
2023-04-08T16:42:21.061Z,5.78
2023-04-08T16:45:10.437Z,6.20
2023-04-08T16:48:00.499Z,6.40
2023-04-08T16:50:48.282Z,5.90
2023-04-08T16:53:35.718Z,6.18
2023-04-08T16:56:22.202Z,5.35
2023-04-08T16:59:08.865Z,5.40
2023-04-08T17:01:55.372Z,5.60
2023-04-08T17:04:42.005Z,6.50
2023-04-08T17:07:31.093Z,6.10
2023-04-08T17:10:17.729Z,5.63
2023-04-08T17:13:05.220Z,5.75
2023-04-08T17:15:51.779Z,5.60
2023-04-08T17:18:38.345Z,5.38
2023-04-08T17:21:27.107Z,6.75
2023-04-08T17:24:14.800Z,7.05
2023-04-08T17:27:01.277Z,6.93
2023-04-08T17:29:47.527Z,6.75
2023-04-08T17:32:33.954Z,6.22
2023-04-08T17:35:20.688Z,6.72
2023-04-08T17:38:10.607Z,6.57
2023-04-08T17:40:58.749Z,7.13
2023-04-08T17:43:45.698Z,7.40
2023-04-08T17:46:33.844Z,7.18
2023-04-08T17:49:21.134Z,7.45
2023-04-08T17:52:08.208Z,6.95
2023-04-08T17:54:56.086Z,8.13
2023-04-08T17:57:43.948Z,8.43
2023-04-08T18:00:30.347Z,7.88
2023-04-08T18:03:16.757Z,7.95
2023-04-08T18:06:03.541Z,8.48
2023-04-08T18:08:51.775Z,8.80
2023-04-08T18:11:38.173Z,8.73
2023-04-08T18:14:26.303Z,9.10
2023-04-08T18:17:14.325Z,9.38
2023-04-08T18:20:00.595Z,8.85
2023-04-08T18:22:48.458Z,10.23
2023-04-08T18:25:34.965Z,11.40
2023-04-08T18:28:22.464Z,11.23
2023-04-08T18:31:10.414Z,11.68
2023-04-08T18:33:57.013Z,13.45
2023-04-08T18:36:43.250Z,14.02
2023-04-08T18:39:29.662Z,13.93
2023-04-08T18:42:15.732Z,13.40
2023-04-08T18:45:02.361Z,13.55
2023-04-08T18:47:49.733Z,14.40
2023-04-08T18:50:37.034Z,13.27
2023-04-08T18:53:23.559Z,12.88
2023-04-08T18:56:15.398Z,13.93
2023-04-08T18:59:01.409Z,13.57
2023-04-08T19:01:47.637Z,13.50
2023-04-08T19:04:35.458Z,13.88
2023-04-08T19:07:21.939Z,14.30
2023-04-08T19:10:09.551Z,14.43
2023-04-08T19:12:55.820Z,15.13
2023-04-08T19:15:42.268Z,14.73
2023-04-08T19:18:28.702Z,15.35
2023-04-08T19:21:16.509Z,15.75
2023-04-08T19:24:04.794Z,14.68
2023-04-08T19:26:53.017Z,15.30
2023-04-08T19:29:39.571Z,14.70
2023-04-08T19:32:26.430Z,15.43
2023-04-08T19:35:13.196Z,14.82
2023-04-08T19:38:01.115Z,15.18
2023-04-08T19:40:47.943Z,16.67
2023-04-08T19:43:34.338Z,16.08
2023-04-08T19:46:20.936Z,16.85
2023-04-08T19:49:08.013Z,16.35
2023-04-08T19:51:55.851Z,16.77
2023-04-08T19:54:44.181Z,17.30
2023-04-08T19:57:30.430Z,18.13
2023-04-08T20:00:16.848Z,17.95
2023-04-08T20:03:03.428Z,17.67
2023-04-08T20:05:50.530Z,17.95
2023-04-08T20:08:36.985Z,18.17
2023-04-08T20:11:24.772Z,18.83
2023-04-08T20:14:11.223Z,18.13
2023-04-08T20:16:57.726Z,18.13
2023-04-08T20:19:44.123Z,17.55
2023-04-08T20:22:30.832Z,18.08
2023-04-08T20:25:17.284Z,18.50
2023-04-08T20:28:05.324Z,17.27
2023-04-08T20:30:54.003Z,16.65
2023-04-08T20:33:43.928Z,17.60
2023-04-08T20:36:30.898Z,17.00
2023-04-08T20:39:17.991Z,17.85
2023-04-08T20:42:05.380Z,16.42
2023-04-08T20:44:53.695Z,18.63
2023-04-08T20:47:40.544Z,17.75
2023-04-08T20:50:28.456Z,17.98
2023-04-08T20:53:14.535Z,17.83
2023-04-08T20:56:00.720Z,17.27
2023-04-08T20:58:47.069Z,16.73
2023-04-08T21:01:35.006Z,17.52
2023-04-08T21:04:22.348Z,18.65
2023-04-08T21:07:08.453Z,17.63
2023-04-08T21:09:54.747Z,18.40
2023-04-08T21:12:41.324Z,17.80
2023-04-08T21:15:33.632Z,17.27
2023-04-08T21:18:21.179Z,16.90
2023-04-08T21:21:07.722Z,18.15
2023-04-08T21:23:54.297Z,19.55
2023-04-08T21:26:40.623Z,18.77
2023-04-08T21:29:27.117Z,19.20
2023-04-08T21:32:13.361Z,19.42
2023-04-08T21:35:01.456Z,19.13
2023-04-08T21:37:47.724Z,20.52
2023-04-08T21:40:34.065Z,22.80
2023-04-08T21:43:20.469Z,23.90
2023-04-08T21:46:06.917Z,24.33
2023-04-08T21:48:53.499Z,25.85
2023-04-08T21:51:41.358Z,25.60
2023-04-08T21:54:27.844Z,24.42
2023-04-08T21:57:13.974Z,27.58
2023-04-08T22:00:00.467Z,24.40
2023-04-08T22:02:47.142Z,25.85
2023-04-08T22:05:33.960Z,25.55
2023-04-08T22:08:22.912Z,26.55
2023-04-08T22:11:09.648Z,26.63
2023-04-08T22:13:55.956Z,25.58
2023-04-08T22:16:43.028Z,26.52
2023-04-08T22:19:29.305Z,28.02
2023-04-08T22:22:15.825Z,27.70
2023-04-08T22:25:03.450Z,26.42
2023-04-08T22:27:49.588Z,25.95
2023-04-08T22:30:36.303Z,26.02
2023-04-08T22:33:22.455Z,26.05
2023-04-08T22:36:08.885Z,25.38
2023-04-08T22:38:54.971Z,26.98
2023-04-08T22:41:42.321Z,26.88
2023-04-08T22:44:28.804Z,25.35
2023-04-08T22:47:15.527Z,25.83
2023-04-08T22:50:01.859Z,26.35
2023-04-08T22:52:48.227Z,26.52
2023-04-08T22:55:34.620Z,25.73
2023-04-08T22:58:22.168Z,24.75
2023-04-08T23:01:12.809Z,25.20
2023-04-08T23:03:58.986Z,24.85
2023-04-08T23:06:45.682Z,25.83
2023-04-08T23:09:32.012Z,25.90
2023-04-08T23:12:18.370Z,24.63
2023-04-08T23:15:07.483Z,25.25
2023-04-08T23:17:53.858Z,24.35
2023-04-08T23:20:40.221Z,24.45
2023-04-08T23:23:27.093Z,24.15
2023-04-08T23:26:18.361Z,24.45
2023-04-08T23:29:04.751Z,24.65
2023-04-08T23:31:52.337Z,24.20
2023-04-08T23:34:38.971Z,24.75
2023-04-08T23:37:25.693Z,22.95
2023-04-08T23:40:12.599Z,23.90
2023-04-08T23:42:59.079Z,22.58
2023-04-08T23:45:45.210Z,24.30
2023-04-08T23:48:33.046Z,21.67
2023-04-08T23:51:19.568Z,22.73
2023-04-08T23:54:06.529Z,23.52
2023-04-08T23:56:52.538Z,21.52
2023-04-08T23:59:38.667Z,23.25
